Pound, Wisconsin
Current Conditions -  °F | °C
As of 10:55 AM on Monday 22 Dec 2014 (Local Time) from KOCQ Reporting Station
Overcast Overcast  
Wind Chill: 28°   Ceiling: 1200
Heat Index: 36°   Visibility: 4mi
Dew Point: 35°   Wind: 12mph
Humidity: 95%   Direction: 150°SSE
Pressure: 29.89"   Gusts: 16mph
Location:  45.09°N, 88.03°W
Report Text: KOCQ 221655Z AUTO 15010G14KT 4SM OVC012 02/01 A2989 RMK AO1 T00210014
Loading
Personal Weather Stations






























Interactive Weather Map New forecast layout! Learn more

10-Day Weather Forecast

Advertisements
Track Severe Weather on mobile